createdAt,value
2023-11-12T00:00:09.292Z,1.17
2023-11-12T00:02:36.043Z,0.77
2023-11-12T00:05:02.970Z,0.87
2023-11-12T00:07:29.785Z,1.23
2023-11-12T00:09:56.659Z,1.00
2023-11-12T00:12:23.859Z,0.73
2023-11-12T00:14:51.525Z,0.97
2023-11-12T00:17:18.512Z,0.90
2023-11-12T00:19:45.347Z,1.20
2023-11-12T00:22:13.190Z,0.73
2023-11-12T00:24:40.542Z,0.90
2023-11-12T00:27:08.421Z,0.97
2023-11-12T00:29:36.187Z,0.90
2023-11-12T00:32:05.269Z,0.90
2023-11-12T00:34:32.213Z,0.93
2023-11-12T00:36:59.007Z,0.90
2023-11-12T00:39:27.378Z,0.77
2023-11-12T00:41:54.479Z,0.93
2023-11-12T00:44:22.330Z,0.90
2023-11-12T00:46:49.137Z,1.00
2023-11-12T00:49:15.946Z,1.10
2023-11-12T00:51:42.763Z,0.87
2023-11-12T00:54:11.192Z,1.00
2023-11-12T00:56:38.011Z,1.00
2023-11-12T00:59:06.537Z,1.10
2023-11-12T01:01:33.479Z,0.70
2023-11-12T01:04:01.968Z,0.80
2023-11-12T01:06:28.832Z,1.00
2023-11-12T01:08:55.593Z,0.90
2023-11-12T01:11:22.478Z,0.77
2023-11-12T01:13:49.309Z,0.80
2023-11-12T01:16:16.580Z,0.93
2023-11-12T01:18:43.444Z,0.90
2023-11-12T01:21:10.811Z,0.80
2023-11-12T01:23:38.143Z,0.80
2023-11-12T01:26:05.400Z,0.87
2023-11-12T01:28:35.190Z,1.17
2023-11-12T01:31:04.956Z,1.10
2023-11-12T01:33:32.539Z,0.80
2023-11-12T01:36:00.298Z,0.73
2023-11-12T01:38:27.163Z,0.90
2023-11-12T01:40:55.704Z,0.80
2023-11-12T01:43:22.761Z,1.10
2023-11-12T01:45:50.731Z,0.93
2023-11-12T01:48:17.968Z,1.17
2023-11-12T01:50:44.897Z,1.13
2023-11-12T01:53:15.750Z,1.50
2023-11-12T01:55:43.228Z,1.20
2023-11-12T01:58:13.185Z,1.63
2023-11-12T02:00:41.029Z,1.87
2023-11-12T02:03:10.678Z,1.67
2023-11-12T02:05:37.542Z,1.60
2023-11-12T02:08:06.268Z,1.67
2023-11-12T02:10:37.156Z,1.43
2023-11-12T02:13:08.259Z,1.20
2023-11-12T02:15:35.963Z,1.63
2023-11-12T02:18:02.999Z,2.10
2023-11-12T02:20:29.808Z,1.50
2023-11-12T02:22:56.680Z,1.40
2023-11-12T02:25:23.566Z,1.97
2023-11-12T02:27:50.400Z,1.80
2023-11-12T02:30:20.007Z,1.50
2023-11-12T02:32:48.335Z,2.03
2023-11-12T02:35:15.438Z,1.60
2023-11-12T02:37:42.409Z,2.27
2023-11-12T02:40:09.901Z,1.90
2023-11-12T02:42:38.314Z,1.90
2023-11-12T02:45:12.156Z,1.37
2023-11-12T02:47:39.085Z,1.87
2023-11-12T02:50:34.216Z,1.70
2023-11-12T02:53:04.159Z,1.60
2023-11-12T02:55:32.904Z,1.67
2023-11-12T02:58:00.606Z,1.93
2023-11-12T03:00:31.206Z,1.90
2023-11-12T03:02:59.920Z,1.70
2023-11-12T03:05:28.143Z,1.90
2023-11-12T03:07:55.458Z,1.80
2023-11-12T03:10:22.891Z,1.67
2023-11-12T03:12:49.841Z,1.40
2023-11-12T03:15:17.792Z,1.40
2023-11-12T03:17:45.125Z,1.73
2023-11-12T03:20:14.750Z,1.43
2023-11-12T03:22:43.337Z,1.57
2023-11-12T03:25:10.979Z,1.60
2023-11-12T03:27:38.288Z,1.33
2023-11-12T03:30:06.375Z,1.67
2023-11-12T03:32:33.485Z,0.97
2023-11-12T03:35:01.922Z,1.40
2023-11-12T03:37:29.023Z,1.33
2023-11-12T03:39:57.490Z,1.60
2023-11-12T03:42:26.558Z,1.70
2023-11-12T03:44:53.410Z,1.57
2023-11-12T03:47:20.436Z,1.57
2023-11-12T03:49:47.246Z,1.60
2023-11-12T03:52:14.072Z,1.40
2023-11-12T03:54:42.543Z,1.63
2023-11-12T03:57:10.606Z,1.50
2023-11-12T03:59:37.856Z,1.80
2023-11-12T04:02:05.799Z,1.40
2023-11-12T04:04:33.365Z,2.10
2023-11-12T04:07:00.380Z,1.67
2023-11-12T04:09:27.258Z,1.63
2023-11-12T04:11:54.495Z,1.47
2023-11-12T04:14:21.558Z,1.30
2023-11-12T04:16:48.389Z,1.47
2023-11-12T04:19:15.224Z,1.93
2023-11-12T04:21:47.676Z,1.40
2023-11-12T04:24:14.908Z,1.60
2023-11-12T04:26:43.407Z,1.17
2023-11-12T04:29:12.482Z,1.40
2023-11-12T04:31:40.804Z,1.70
2023-11-12T04:34:08.141Z,1.90
2023-11-12T04:36:36.533Z,1.40
2023-11-12T04:39:04.611Z,1.50
2023-11-12T04:41:31.413Z,1.50
2023-11-12T04:43:58.492Z,1.70
2023-11-12T04:46:26.417Z,1.70
2023-11-12T04:48:53.470Z,1.33
2023-11-12T04:51:20.968Z,1.17
2023-11-12T04:53:47.874Z,1.63
2023-11-12T04:56:15.055Z,2.00
2023-11-12T04:58:41.886Z,1.60
2023-11-12T05:01:08.709Z,1.70
2023-11-12T05:03:37.936Z,1.80
2023-11-12T05:06:05.234Z,1.67
2023-11-12T05:08:32.164Z,1.80
2023-11-12T05:10:59.010Z,2.07
2023-11-12T05:13:26.551Z,1.70
2023-11-12T05:15:53.358Z,1.70
2023-11-12T05:18:23.113Z,1.33
2023-11-12T05:20:49.900Z,1.63
2023-11-12T05:23:17.616Z,1.80
2023-11-12T05:25:46.324Z,2.00
2023-11-12T05:28:13.296Z,2.03
2023-11-12T05:30:40.827Z,1.93
2023-11-12T05:33:07.703Z,1.50
2023-11-12T05:35:34.519Z,1.67
2023-11-12T05:38:01.328Z,1.63
2023-11-12T05:40:30.202Z,1.93
2023-11-12T05:42:57.243Z,1.73
2023-11-12T05:45:24.088Z,2.00
2023-11-12T05:47:51.059Z,1.33
2023-11-12T05:50:17.890Z,1.60
2023-11-12T05:52:44.773Z,1.40
2023-11-12T05:55:12.720Z,1.60
2023-11-12T05:57:39.587Z,1.70
2023-11-12T06:00:08.891Z,2.00
2023-11-12T06:02:36.039Z,1.83
2023-11-12T06:05:04.724Z,1.57
2023-11-12T06:07:31.713Z,1.90
2023-11-12T06:09:58.486Z,1.53
2023-11-12T06:12:25.275Z,1.80
2023-11-12T06:14:52.071Z,1.60
2023-11-12T06:17:18.847Z,1.53
2023-11-12T06:19:45.710Z,1.63
2023-11-12T06:22:12.530Z,1.67
2023-11-12T06:24:39.350Z,1.73
2023-11-12T06:27:06.171Z,1.90
2023-11-12T06:29:33.033Z,1.63
2023-11-12T06:31:59.873Z,1.67
2023-11-12T06:34:26.707Z,1.50
2023-11-12T06:36:56.284Z,1.60
2023-11-12T06:39:23.072Z,1.40
2023-11-12T06:41:49.857Z,1.63
2023-11-12T06:44:16.674Z,1.60
2023-11-12T06:46:46.974Z,1.63
2023-11-12T06:49:13.801Z,1.43
2023-11-12T06:51:40.679Z,1.47
2023-11-12T06:54:08.567Z,1.40
2023-11-12T06:56:35.356Z,1.90
2023-11-12T06:59:23.329Z,1.60
2023-11-12T07:01:50.253Z,1.83
2023-11-12T07:04:18.779Z,1.97
2023-11-12T07:07:00.951Z,2.37
2023-11-12T07:09:32.564Z,1.60
2023-11-12T07:11:59.371Z,1.83
2023-11-12T07:14:27.070Z,1.70
2023-11-12T07:16:54.578Z,2.20
2023-11-12T07:19:21.577Z,1.70
2023-11-12T07:21:48.480Z,1.87
2023-11-12T07:24:15.453Z,2.07
2023-11-12T07:26:43.509Z,1.83
2023-11-12T07:29:14.721Z,2.17
2023-11-12T07:31:44.094Z,2.37
2023-11-12T07:34:11.079Z,2.07
2023-11-12T07:36:38.485Z,1.77
2023-11-12T07:39:05.385Z,1.73
2023-11-12T07:41:35.703Z,2.07
2023-11-12T07:44:03.466Z,2.13
2023-11-12T07:46:30.323Z,1.63
2023-11-12T07:48:57.984Z,2.03
2023-11-12T07:51:24.810Z,2.30
2023-11-12T07:53:51.941Z,1.90
2023-11-12T07:56:18.791Z,2.10
2023-11-12T07:58:47.115Z,2.63
2023-11-12T08:01:13.946Z,2.57
2023-11-12T08:03:40.817Z,2.13
2023-11-12T08:06:10.508Z,1.70
2023-11-12T08:08:37.821Z,2.03
2023-11-12T08:11:04.944Z,2.10
2023-11-12T08:13:31.837Z,2.03
2023-11-12T08:15:58.700Z,2.80
2023-11-12T08:18:26.771Z,2.20
2023-11-12T08:20:55.833Z,2.00
2023-11-12T08:23:22.853Z,2.23
2023-11-12T08:25:49.634Z,1.60
2023-11-12T08:28:19.728Z,1.60
2023-11-12T08:30:47.908Z,2.10
2023-11-12T08:33:14.778Z,1.60
2023-11-12T08:35:42.739Z,1.70
2023-11-12T08:38:09.609Z,1.90
2023-11-12T08:40:42.639Z,2.07
2023-11-12T08:43:10.919Z,1.60
2023-11-12T08:45:37.811Z,1.50
2023-11-12T08:48:05.209Z,1.40
2023-11-12T08:50:32.167Z,1.23
2023-11-12T08:53:00.782Z,1.00
2023-11-12T08:55:28.100Z,0.90
2023-11-12T08:57:54.953Z,1.10
2023-11-12T09:00:22.143Z,1.40
2023-11-12T09:02:49.064Z,1.20
2023-11-12T09:05:15.930Z,0.73
2023-11-12T09:07:42.914Z,0.70
2023-11-12T09:10:09.954Z,0.80
2023-11-12T09:12:36.808Z,0.90
2023-11-12T09:15:05.209Z,0.90
2023-11-12T09:17:32.032Z,0.80
2023-11-12T09:19:58.876Z,0.57
2023-11-12T09:22:25.663Z,0.50
2023-11-12T09:25:03.954Z,0.53
2023-11-12T09:27:36.131Z,0.30
2023-11-12T09:30:03.972Z,0.80
2023-11-12T09:32:31.142Z,0.60
2023-11-12T09:34:58.116Z,0.73
2023-11-12T09:37:24.898Z,0.57
2023-11-12T09:39:51.686Z,0.50
2023-11-12T09:42:23.503Z,0.60
2023-11-12T09:44:54.608Z,0.70
2023-11-12T09:47:42.184Z,0.47
2023-11-12T09:50:11.659Z,0.50
2023-11-12T09:52:38.525Z,0.60
2023-11-12T09:55:07.763Z,0.80
2023-11-12T09:57:34.837Z,0.43
2023-11-12T10:00:04.397Z,0.30
2023-11-12T10:02:34.928Z,0.40
2023-11-12T10:05:05.625Z,0.30
2023-11-12T10:07:32.462Z,0.30
2023-11-12T10:10:23.980Z,0.30
2023-11-12T10:12:53.306Z,0.40
2023-11-12T10:15:31.857Z,0.40
2023-11-12T10:18:01.163Z,0.30
2023-11-12T10:20:42.500Z,0.60
2023-11-12T10:23:32.626Z,0.70
2023-11-12T10:26:00.632Z,0.80
2023-11-12T10:28:35.055Z,0.40
2023-11-12T10:31:02.015Z,0.60
2023-11-12T10:33:29.031Z,0.50
2023-11-12T10:35:59.560Z,0.50
2023-11-12T10:38:26.372Z,0.30
2023-11-12T10:41:08.554Z,0.23
2023-11-12T10:43:37.015Z,0.30
2023-11-12T10:46:06.070Z,0.30
2023-11-12T10:48:38.415Z,0.30
2023-11-12T10:51:11.433Z,0.30
2023-11-12T10:53:42.431Z,0.30
2023-11-12T10:56:10.989Z,0.23
2023-11-12T10:58:37.850Z,0.20
2023-11-12T11:01:08.192Z,0.20
2023-11-12T11:03:35.840Z,0.23
2023-11-12T11:06:03.123Z,0.40
2023-11-12T11:08:31.886Z,0.40
2023-11-12T11:11:02.233Z,0.50
2023-11-12T11:13:30.062Z,0.40
2023-11-12T11:15:58.175Z,0.40
2023-11-12T11:18:34.893Z,0.50
2023-11-12T11:21:09.949Z,0.40
2023-11-12T11:23:42.877Z,0.63
2023-11-12T11:26:40.525Z,0.60
2023-11-12T11:29:08.618Z,0.50
2023-11-12T11:31:37.916Z,0.60
2023-11-12T11:34:07.394Z,0.60
2023-11-12T11:36:35.704Z,0.60
2023-11-12T11:39:12.163Z,0.60
2023-11-12T11:41:54.585Z,0.67
2023-11-12T11:44:40.241Z,0.80
2023-11-12T11:47:15.780Z,0.70
2023-11-12T11:49:47.132Z,1.00
2023-11-12T11:52:25.157Z,0.90
2023-11-12T11:55:06.031Z,0.70
2023-11-12T11:57:33.637Z,0.80
2023-11-12T12:00:01.977Z,0.70
2023-11-12T12:02:29.690Z,0.77
2023-11-12T12:04:59.198Z,0.60
2023-11-12T12:07:28.312Z,0.80
2023-11-12T12:09:59.536Z,0.70
2023-11-12T12:12:27.665Z,0.70
2023-11-12T12:14:56.314Z,0.70
2023-11-12T12:17:23.753Z,0.50
2023-11-12T12:19:57.143Z,0.70
2023-11-12T12:22:28.855Z,0.90
2023-11-12T12:24:58.392Z,1.00
2023-11-12T12:27:26.150Z,0.53
2023-11-12T12:29:54.325Z,0.90
2023-11-12T12:32:25.188Z,0.63
2023-11-12T12:35:01.910Z,0.60
2023-11-12T12:37:31.519Z,0.60
2023-11-12T12:40:04.113Z,0.50
2023-11-12T12:42:32.125Z,0.50
2023-11-12T12:44:59.512Z,0.50
2023-11-12T12:47:37.614Z,0.40
2023-11-12T12:50:31.160Z,0.60
2023-11-12T12:53:23.428Z,0.67
2023-11-12T12:55:52.680Z,0.80
2023-11-12T12:58:20.576Z,0.60
2023-11-12T13:00:47.485Z,0.80
2023-11-12T13:03:27.908Z,0.70
2023-11-12T13:05:56.778Z,0.70
2023-11-12T13:08:24.402Z,0.80
2023-11-12T13:10:51.786Z,0.60
2023-11-12T13:13:18.768Z,0.80
2023-11-12T13:15:48.843Z,0.60
2023-11-12T13:18:15.870Z,0.80
2023-11-12T13:20:45.725Z,0.70
2023-11-12T13:23:12.766Z,0.50
2023-11-12T13:25:39.650Z,0.57
2023-11-12T13:28:09.960Z,0.60
2023-11-12T13:30:37.573Z,0.70
2023-11-12T13:33:05.144Z,0.40
2023-11-12T13:35:33.192Z,0.40
2023-11-12T13:38:00.017Z,0.70
2023-11-12T13:40:26.853Z,0.40
2023-11-12T13:43:03.275Z,0.40
2023-11-12T13:45:31.627Z,0.40
2023-11-12T13:47:58.506Z,0.40
2023-11-12T13:50:29.214Z,0.60
2023-11-12T13:52:59.172Z,0.60
2023-11-12T13:55:29.019Z,0.40
2023-11-12T13:57:56.796Z,0.50
2023-11-12T14:00:30.902Z,0.30
2023-11-12T14:02:58.801Z,0.30
2023-11-12T14:05:27.836Z,0.30
2023-11-12T14:07:57.767Z,0.40
2023-11-12T14:10:25.916Z,0.40
2023-11-12T14:12:53.033Z,0.40
2023-11-12T14:15:20.551Z,0.27
2023-11-12T14:17:47.528Z,0.57
2023-11-12T14:20:22.620Z,0.50
2023-11-12T14:22:49.894Z,0.40
2023-11-12T14:25:20.007Z,0.50
2023-11-12T14:27:49.615Z,0.30
2023-11-12T14:30:20.482Z,0.33
2023-11-12T14:32:48.399Z,0.57
2023-11-12T14:35:18.004Z,0.50
2023-11-12T14:37:48.387Z,0.50
2023-11-12T14:40:17.551Z,0.50
2023-11-12T14:42:46.768Z,0.30
2023-11-12T14:47:46.036Z,0.40
2023-11-12T14:50:12.999Z,0.40
2023-11-12T14:52:42.736Z,0.57
2023-11-12T14:55:18.098Z,0.30
2023-11-12T14:57:54.754Z,0.70
2023-11-12T15:00:28.718Z,0.30
2023-11-12T15:02:57.146Z,0.50
2023-11-12T15:05:24.302Z,0.50
2023-11-12T15:07:51.088Z,0.60
2023-11-12T15:10:27.002Z,0.63
2023-11-12T15:12:53.955Z,0.67
2023-11-12T15:15:21.502Z,0.57
2023-11-12T15:17:49.082Z,0.50
2023-11-12T15:20:15.981Z,0.60
2023-11-12T15:22:47.176Z,0.47
2023-11-12T15:25:14.739Z,0.60
2023-11-12T15:27:47.361Z,0.60
2023-11-12T15:30:14.980Z,0.40
2023-11-12T15:32:42.851Z,0.30
2023-11-12T15:35:11.361Z,0.50
2023-11-12T15:37:38.471Z,9.43
2023-11-12T15:40:23.621Z,8.67
2023-11-12T15:42:57.391Z,3.27
2023-11-12T15:45:25.301Z,0.70
2023-11-12T15:47:53.204Z,0.40
2023-11-12T15:50:22.791Z,0.50
2023-11-12T15:52:49.572Z,0.67
2023-11-12T15:55:21.515Z,0.47
2023-11-12T15:57:48.428Z,0.90
2023-11-12T16:00:18.451Z,0.80
2023-11-12T16:02:47.530Z,0.50
2023-11-12T16:05:14.739Z,0.50
2023-11-12T16:07:43.779Z,0.90
2023-11-12T16:10:12.444Z,1.20
2023-11-12T16:12:40.104Z,0.83
2023-11-12T16:15:12.525Z,0.80
2023-11-12T16:17:40.502Z,1.07
2023-11-12T16:20:09.675Z,0.90
2023-11-12T16:22:38.861Z,1.10
2023-11-12T16:25:11.441Z,1.00
2023-11-12T16:27:39.311Z,1.33
2023-11-12T16:30:08.487Z,1.90
2023-11-12T16:32:37.146Z,1.37
2023-11-12T16:35:04.713Z,1.00
2023-11-12T16:37:31.958Z,0.80
2023-11-12T16:40:00.489Z,0.93
2023-11-12T16:42:28.379Z,0.77
2023-11-12T16:44:55.145Z,0.90
2023-11-12T16:47:25.134Z,0.80
2023-11-12T16:49:54.285Z,0.80
2023-11-12T16:52:21.201Z,0.70
2023-11-12T16:54:48.117Z,0.90
2023-11-12T16:57:15.133Z,1.00
2023-11-12T16:59:42.226Z,0.90
2023-11-12T17:02:14.753Z,0.90
2023-11-12T17:04:41.995Z,1.03
2023-11-12T17:07:12.633Z,1.33
2023-11-12T17:09:46.174Z,1.37
2023-11-12T17:12:14.851Z,1.10
2023-11-12T17:14:42.409Z,1.30
2023-11-12T17:17:09.304Z,1.00
2023-11-12T17:19:36.455Z,1.00
2023-11-12T17:22:03.309Z,1.00
2023-11-12T17:24:30.193Z,1.30
2023-11-12T17:26:57.821Z,1.10
2023-11-12T17:29:25.272Z,1.10
2023-11-12T17:31:52.157Z,1.23
2023-11-12T17:34:20.017Z,0.97
2023-11-12T17:36:47.703Z,1.27
2023-11-12T17:39:17.101Z,1.23
2023-11-12T17:41:47.724Z,1.30
2023-11-12T17:44:15.531Z,1.20
2023-11-12T17:46:45.536Z,1.30
2023-11-12T17:49:12.964Z,1.30
2023-11-12T17:51:40.088Z,1.40
2023-11-12T17:54:07.223Z,1.17
2023-11-12T17:56:34.915Z,1.73
2023-11-12T17:59:01.739Z,1.30
2023-11-12T18:01:29.377Z,1.60
2023-11-12T18:03:58.865Z,1.67
2023-11-12T18:06:26.539Z,1.80
2023-11-12T18:08:53.327Z,1.33
2023-11-12T18:11:21.522Z,1.80
2023-11-12T18:13:48.365Z,1.77
2023-11-12T18:16:15.278Z,2.03
2023-11-12T18:18:43.656Z,2.10
2023-11-12T18:21:13.026Z,1.83
2023-11-12T18:23:40.240Z,2.03
2023-11-12T18:26:09.804Z,2.00
2023-11-12T18:28:38.286Z,1.90
2023-11-12T18:31:07.047Z,1.80
2023-11-12T18:33:36.049Z,2.00
2023-11-12T18:36:03.108Z,1.67
2023-11-12T18:38:30.079Z,1.90
2023-11-12T18:40:56.956Z,1.67
2023-11-12T18:43:25.829Z,1.53
2023-11-12T18:45:56.974Z,1.93
2023-11-12T18:48:24.885Z,2.30
2023-11-12T18:50:52.403Z,1.80
2023-11-12T18:53:21.650Z,2.33
2023-11-12T18:55:48.794Z,2.10
2023-11-12T18:58:17.275Z,1.70
2023-11-12T19:00:47.525Z,2.20
2023-11-12T19:03:14.496Z,2.07
2023-11-12T19:05:41.984Z,1.87
2023-11-12T19:08:14.157Z,2.40
2023-11-12T19:10:41.093Z,2.30
2023-11-12T19:13:09.366Z,2.20
2023-11-12T19:15:37.592Z,2.30
2023-11-12T19:18:06.901Z,2.97
2023-11-12T19:20:40.674Z,2.50
2023-11-12T19:23:07.571Z,1.97
2023-11-12T19:25:34.431Z,2.80
2023-11-12T19:28:03.554Z,2.43
2023-11-12T19:30:32.501Z,2.20
2023-11-12T19:33:02.051Z,2.27
2023-11-12T19:35:29.680Z,2.30
2023-11-12T19:37:57.751Z,1.97
2023-11-12T19:40:26.441Z,2.37
2023-11-12T19:42:53.278Z,2.30
2023-11-12T19:45:21.101Z,2.37
2023-11-12T19:47:55.422Z,2.60
2023-11-12T19:50:23.009Z,2.10
2023-11-12T19:52:51.181Z,2.20
2023-11-12T19:55:22.580Z,1.97
2023-11-12T19:57:53.237Z,1.73
2023-11-12T20:00:21.377Z,2.20
2023-11-12T20:02:50.935Z,2.20
2023-11-12T20:05:17.775Z,2.47
2023-11-12T20:07:44.676Z,2.27
2023-11-12T20:10:14.024Z,2.27
2023-11-12T20:12:40.960Z,2.47
2023-11-12T20:15:09.332Z,2.70
2023-11-12T20:17:37.697Z,2.50
2023-11-12T20:20:05.214Z,2.53
2023-11-12T20:22:32.869Z,2.63
2023-11-12T20:24:59.967Z,1.93
2023-11-12T20:27:26.792Z,2.17
2023-11-12T20:29:59.193Z,2.07
2023-11-12T20:32:29.304Z,2.40
2023-11-12T20:34:57.343Z,2.17
2023-11-12T20:37:25.176Z,2.60
2023-11-12T20:39:52.493Z,2.40
2023-11-12T20:42:20.543Z,2.40
2023-11-12T20:44:47.339Z,2.30
2023-11-12T20:47:14.264Z,2.97
2023-11-12T20:49:43.367Z,2.67
2023-11-12T20:52:11.992Z,3.23
2023-11-12T20:54:39.232Z,3.13
2023-11-12T20:57:09.187Z,3.43
2023-11-12T20:59:37.427Z,2.93
2023-11-12T21:02:14.198Z,3.10
2023-11-12T21:04:49.714Z,3.40
2023-11-12T21:07:17.468Z,3.13
2023-11-12T21:09:44.370Z,2.93
2023-11-12T21:12:11.142Z,3.83
2023-11-12T21:14:38.553Z,3.20
2023-11-12T21:17:05.489Z,4.33
2023-11-12T21:19:34.502Z,2.70
2023-11-12T21:22:01.329Z,3.03
2023-11-12T21:24:28.878Z,3.27
2023-11-12T21:26:55.750Z,3.20
2023-11-12T21:29:24.682Z,2.87
2023-11-12T21:31:54.253Z,3.07
2023-11-12T21:34:22.461Z,3.30
2023-11-12T21:36:51.721Z,3.23
2023-11-12T21:39:19.869Z,2.53
2023-11-12T21:41:47.628Z,2.90
2023-11-12T21:44:14.545Z,3.37
2023-11-12T21:46:45.023Z,2.70
2023-11-12T21:49:12.338Z,2.57
2023-11-12T21:51:39.952Z,2.73
2023-11-12T21:54:07.807Z,2.80
2023-11-12T21:56:35.493Z,2.80
2023-11-12T21:59:02.443Z,3.03
2023-11-12T22:01:29.328Z,2.63
2023-11-12T22:03:56.236Z,2.33
2023-11-12T22:06:24.152Z,2.77
2023-11-12T22:08:52.699Z,2.80
2023-11-12T22:11:19.761Z,2.73
2023-11-12T22:13:46.568Z,3.07
2023-11-12T22:16:13.495Z,2.60
2023-11-12T22:18:41.235Z,2.63
2023-11-12T22:21:08.437Z,2.57
2023-11-12T22:23:35.437Z,2.63
2023-11-12T22:26:03.478Z,3.57
2023-11-12T22:28:31.823Z,2.90
2023-11-12T22:30:58.831Z,3.00
2023-11-12T22:33:26.417Z,3.03
2023-11-12T22:35:53.239Z,3.60
2023-11-12T22:38:20.015Z,2.97
2023-11-12T22:40:47.121Z,3.33
2023-11-12T22:43:13.907Z,2.63
2023-11-12T22:45:43.250Z,2.67
2023-11-12T22:48:10.158Z,2.77
2023-11-12T22:50:37.021Z,3.00
2023-11-12T22:53:03.868Z,2.40
2023-11-12T22:55:30.651Z,2.70
2023-11-12T22:57:59.093Z,2.80
2023-11-12T23:00:42.701Z,2.33
2023-11-12T23:03:14.513Z,2.40
2023-11-12T23:05:42.267Z,1.93
2023-11-12T23:08:09.473Z,1.27
2023-11-12T23:10:37.401Z,1.70
2023-11-12T23:13:04.443Z,2.03
2023-11-12T23:15:32.200Z,1.70
2023-11-12T23:17:59.844Z,1.70
2023-11-12T23:20:26.948Z,1.60
2023-11-12T23:22:53.835Z,1.70
2023-11-12T23:25:20.802Z,1.33
2023-11-12T23:27:48.114Z,1.30
2023-11-12T23:30:15.029Z,1.30
2023-11-12T23:32:45.456Z,1.40
2023-11-12T23:35:12.320Z,1.23
2023-11-12T23:37:39.208Z,1.33
2023-11-12T23:40:07.951Z,1.37
2023-11-12T23:42:35.048Z,1.30
2023-11-12T23:45:01.789Z,1.40
2023-11-12T23:47:29.509Z,1.47
2023-11-12T23:49:56.346Z,1.40
2023-11-12T23:52:23.207Z,1.20
2023-11-12T23:54:50.074Z,0.90
2023-11-12T23:57:16.891Z,1.40
2023-11-12T23:59:44.097Z,1.50
